Terminal Aerodrome Forecast
Issued by NWS Topeka, KS

Home | Current Version | Previous Version | Graphics & Text | Print | Product List | Glossary On
Versions: 1 2 3 4 5 6 7 8 9 10 11 12 13
647
FTUS43 KTOP 281145 AAA
TAFTOP
TAF AMD
KTOP 281145Z 2812/2912 30003KT P6SM SKC WS006/02030KT
     FM281400 01011KT P6SM FEW030
     FM290000 36004KT P6SM SCT030=

USA.gov is the U.S. government's official web portal to all federal, state and local government web resources and services.